sensor_id;sensor_type;location;lat;lon;timestamp;temperature;humidity
72865;DHT22;61000;48.120;11.548;2022-08-19T00:00:50;18.00;99.90
72865;DHT22;61000;48.120;11.548;2022-08-19T00:03:17;18.00;99.90
72865;DHT22;61000;48.120;11.548;2022-08-19T00:05:44;18.10;99.90
72865;DHT22;61000;48.120;11.548;2022-08-19T00:08:11;18.10;99.90
72865;DHT22;61000;48.120;11.548;2022-08-19T00:10:38;18.10;99.90
72865;DHT22;61000;48.120;11.548;2022-08-19T00:13:05;18.10;99.90
72865;DHT22;61000;48.120;11.548;2022-08-19T00:15:32;18.10;99.90
72865;DHT22;61000;48.120;11.548;2022-08-19T00:18:00;18.10;99.90
72865;DHT22;61000;48.120;11.548;2022-08-19T00:20:27;18.10;99.90
72865;DHT22;61000;48.120;11.548;2022-08-19T00:22:54;18.10;99.90
72865;DHT22;61000;48.120;11.548;2022-08-19T00:25:21;18.10;99.90
72865;DHT22;61000;48.120;11.548;2022-08-19T00:27:49;18.20;99.90
72865;DHT22;61000;48.120;11.548;2022-08-19T00:30:16;18.10;99.90
72865;DHT22;61000;48.120;11.548;2022-08-19T00:32:43;18.10;99.90
72865;DHT22;61000;48.120;11.548;2022-08-19T00:35:11;18.10;99.90
72865;DHT22;61000;48.120;11.548;2022-08-19T00:37:38;18.20;99.90
72865;DHT22;61000;48.120;11.548;2022-08-19T00:40:10;18.10;99.90
72865;DHT22;61000;48.120;11.548;2022-08-19T00:42:38;18.20;99.90
72865;DHT22;61000;48.120;11.548;2022-08-19T00:45:09;18.20;99.90
72865;DHT22;61000;48.120;11.548;2022-08-19T00:47:37;18.20;99.90
72865;DHT22;61000;48.120;11.548;2022-08-19T00:50:05;18.20;99.90
72865;DHT22;61000;48.120;11.548;2022-08-19T00:52:38;18.20;99.90
72865;DHT22;61000;48.120;11.548;2022-08-19T00:55:12;18.20;99.90
72865;DHT22;61000;48.120;11.548;2022-08-19T00:57:44;18.20;99.90
72865;DHT22;61000;48.120;11.548;2022-08-19T01:00:16;18.20;99.90
72865;DHT22;61000;48.120;11.548;2022-08-19T01:02:45;18.20;99.90
72865;DHT22;61000;48.120;11.548;2022-08-19T01:05:16;18.20;99.90
72865;DHT22;61000;48.120;11.548;2022-08-19T01:07:46;18.20;99.90
72865;DHT22;61000;48.120;11.548;2022-08-19T01:10:16;18.20;99.90
72865;DHT22;61000;48.120;11.548;2022-08-19T01:12:46;18.20;99.90
72865;DHT22;61000;48.120;11.548;2022-08-19T01:15:16;18.20;99.90
72865;DHT22;61000;48.120;11.548;2022-08-19T01:17:45;18.20;99.90
72865;DHT22;61000;48.120;11.548;2022-08-19T01:20:17;18.10;99.90
72865;DHT22;61000;48.120;11.548;2022-08-19T01:22:47;18.10;99.90
72865;DHT22;61000;48.120;11.548;2022-08-19T01:25:18;18.10;99.90
72865;DHT22;61000;48.120;11.548;2022-08-19T01:27:47;18.10;99.90
72865;DHT22;61000;48.120;11.548;2022-08-19T01:30:18;18.10;99.90
72865;DHT22;61000;48.120;11.548;2022-08-19T01:32:46;18.10;99.90
72865;DHT22;61000;48.120;11.548;2022-08-19T01:35:13;18.10;99.90
72865;DHT22;61000;48.120;11.548;2022-08-19T01:37:48;18.10;99.90
72865;DHT22;61000;48.120;11.548;2022-08-19T01:40:16;18.20;99.90
72865;DHT22;61000;48.120;11.548;2022-08-19T01:42:44;18.20;99.90
72865;DHT22;61000;48.120;11.548;2022-08-19T01:45:11;18.30;99.90
72865;DHT22;61000;48.120;11.548;2022-08-19T01:47:39;18.30;99.90
72865;DHT22;61000;48.120;11.548;2022-08-19T01:50:07;18.20;99.90
72865;DHT22;61000;48.120;11.548;2022-08-19T01:52:35;18.20;99.90
72865;DHT22;61000;48.120;11.548;2022-08-19T01:55:06;18.20;99.90
72865;DHT22;61000;48.120;11.548;2022-08-19T01:57:34;18.20;99.90
72865;DHT22;61000;48.120;11.548;2022-08-19T02:00:06;18.20;99.90
72865;DHT22;61000;48.120;11.548;2022-08-19T02:02:37;18.20;99.90
72865;DHT22;61000;48.120;11.548;2022-08-19T02:05:06;18.20;99.90
72865;DHT22;61000;48.120;11.548;2022-08-19T02:07:34;18.20;99.90
72865;DHT22;61000;48.120;11.548;2022-08-19T02:10:03;18.20;99.90
72865;DHT22;61000;48.120;11.548;2022-08-19T02:12:30;18.20;99.90
72865;DHT22;61000;48.120;11.548;2022-08-19T02:14:59;18.20;99.90
72865;DHT22;61000;48.120;11.548;2022-08-19T02:17:27;18.20;99.90
72865;DHT22;61000;48.120;11.548;2022-08-19T02:19:54;18.20;99.90
72865;DHT22;61000;48.120;11.548;2022-08-19T02:22:22;18.20;99.90
72865;DHT22;61000;48.120;11.548;2022-08-19T02:24:51;18.20;99.90
72865;DHT22;61000;48.120;11.548;2022-08-19T02:27:20;18.20;99.90
72865;DHT22;61000;48.120;11.548;2022-08-19T02:29:48;18.20;99.90
72865;DHT22;61000;48.120;11.548;2022-08-19T02:32:15;18.20;99.90
72865;DHT22;61000;48.120;11.548;2022-08-19T02:34:42;18.20;99.90
72865;DHT22;61000;48.120;11.548;2022-08-19T02:37:09;18.20;99.80
72865;DHT22;61000;48.120;11.548;2022-08-19T02:39:56;18.20;99.90
72865;DHT22;61000;48.120;11.548;2022-08-19T02:42:24;18.20;99.90
72865;DHT22;61000;48.120;11.548;2022-08-19T02:44:51;18.20;99.70
72865;DHT22;61000;48.120;11.548;2022-08-19T02:47:18;18.20;99.80
72865;DHT22;61000;48.120;11.548;2022-08-19T02:49:46;18.20;99.80
72865;DHT22;61000;48.120;11.548;2022-08-19T02:52:15;18.20;99.70
72865;DHT22;61000;48.120;11.548;2022-08-19T02:54:42;18.10;99.80
72865;DHT22;61000;48.120;11.548;2022-08-19T02:57:09;18.10;99.90
72865;DHT22;61000;48.120;11.548;2022-08-19T02:59:38;18.10;99.90
72865;DHT22;61000;48.120;11.548;2022-08-19T03:02:05;18.10;99.90
72865;DHT22;61000;48.120;11.548;2022-08-19T03:04:32;18.00;99.90
72865;DHT22;61000;48.120;11.548;2022-08-19T03:06:59;18.00;99.90
72865;DHT22;61000;48.120;11.548;2022-08-19T03:09:26;18.00;99.90
72865;DHT22;61000;48.120;11.548;2022-08-19T03:11:52;18.10;99.90
72865;DHT22;61000;48.120;11.548;2022-08-19T03:14:19;18.00;99.90
72865;DHT22;61000;48.120;11.548;2022-08-19T03:16:49;18.10;99.90
72865;DHT22;61000;48.120;11.548;2022-08-19T03:19:19;18.00;99.90
72865;DHT22;61000;48.120;11.548;2022-08-19T03:21:46;18.10;99.90
72865;DHT22;61000;48.120;11.548;2022-08-19T03:24:14;18.10;99.90
72865;DHT22;61000;48.120;11.548;2022-08-19T03:26:42;18.10;99.90
72865;DHT22;61000;48.120;11.548;2022-08-19T03:29:10;18.10;99.90
72865;DHT22;61000;48.120;11.548;2022-08-19T03:31:38;18.10;99.90
72865;DHT22;61000;48.120;11.548;2022-08-19T03:34:09;18.10;99.90
72865;DHT22;61000;48.120;11.548;2022-08-19T03:36:37;18.10;99.90
72865;DHT22;61000;48.120;11.548;2022-08-19T03:39:04;18.10;99.90
72865;DHT22;61000;48.120;11.548;2022-08-19T03:41:37;18.10;99.90
72865;DHT22;61000;48.120;11.548;2022-08-19T03:44:05;18.10;99.90
72865;DHT22;61000;48.120;11.548;2022-08-19T03:46:33;18.10;99.90
72865;DHT22;61000;48.120;11.548;2022-08-19T03:49:02;18.10;99.90
72865;DHT22;61000;48.120;11.548;2022-08-19T03:51:36;18.10;99.90
72865;DHT22;61000;48.120;11.548;2022-08-19T03:54:06;18.10;99.90
72865;DHT22;61000;48.120;11.548;2022-08-19T03:56:34;18.10;99.90
72865;DHT22;61000;48.120;11.548;2022-08-19T03:59:03;18.10;99.90
72865;DHT22;61000;48.120;11.548;2022-08-19T04:01:30;18.10;99.90
72865;DHT22;61000;48.120;11.548;2022-08-19T04:03:58;18.10;99.90
72865;DHT22;61000;48.120;11.548;2022-08-19T04:06:28;18.10;99.90
72865;DHT22;61000;48.120;11.548;2022-08-19T04:08:59;18.10;99.90
72865;DHT22;61000;48.120;11.548;2022-08-19T04:11:28;18.10;99.90
72865;DHT22;61000;48.120;11.548;2022-08-19T04:13:56;18.10;99.90
72865;DHT22;61000;48.120;11.548;2022-08-19T04:16:24;18.10;99.90
72865;DHT22;61000;48.120;11.548;2022-08-19T04:18:54;18.10;99.90
72865;DHT22;61000;48.120;11.548;2022-08-19T04:21:23;18.10;99.90
72865;DHT22;61000;48.120;11.548;2022-08-19T04:23:50;18.10;99.90
72865;DHT22;61000;48.120;11.548;2022-08-19T04:26:21;18.10;99.90
72865;DHT22;61000;48.120;11.548;2022-08-19T04:28:48;18.10;99.80
72865;DHT22;61000;48.120;11.548;2022-08-19T04:31:18;18.10;99.80
72865;DHT22;61000;48.120;11.548;2022-08-19T04:33:46;18.10;99.90
72865;DHT22;61000;48.120;11.548;2022-08-19T04:36:16;18.10;99.90
72865;DHT22;61000;48.120;11.548;2022-08-19T04:38:46;18.10;99.90
72865;DHT22;61000;48.120;11.548;2022-08-19T04:41:13;18.10;99.90
72865;DHT22;61000;48.120;11.548;2022-08-19T04:43:59;18.10;99.90
72865;DHT22;61000;48.120;11.548;2022-08-19T04:46:26;18.10;99.90
72865;DHT22;61000;48.120;11.548;2022-08-19T04:48:54;18.20;99.90
72865;DHT22;61000;48.120;11.548;2022-08-19T04:51:23;18.20;99.80
72865;DHT22;61000;48.120;11.548;2022-08-19T04:53:50;18.20;99.90
72865;DHT22;61000;48.120;11.548;2022-08-19T04:56:19;18.20;99.90
72865;DHT22;61000;48.120;11.548;2022-08-19T04:58:47;18.20;99.80
72865;DHT22;61000;48.120;11.548;2022-08-19T05:01:21;18.30;99.90
72865;DHT22;61000;48.120;11.548;2022-08-19T05:03:49;18.30;99.70
72865;DHT22;61000;48.120;11.548;2022-08-19T05:06:18;18.30;99.60
72865;DHT22;61000;48.120;11.548;2022-08-19T05:08:46;18.30;99.60
72865;DHT22;61000;48.120;11.548;2022-08-19T05:11:15;18.30;99.60
72865;DHT22;61000;48.120;11.548;2022-08-19T05:13:43;18.30;99.60
72865;DHT22;61000;48.120;11.548;2022-08-19T05:16:11;18.30;99.60
72865;DHT22;61000;48.120;11.548;2022-08-19T05:18:40;18.30;99.80
72865;DHT22;61000;48.120;11.548;2022-08-19T05:21:26;18.30;99.60
72865;DHT22;61000;48.120;11.548;2022-08-19T05:24:11;18.30;99.50
72865;DHT22;61000;48.120;11.548;2022-08-19T05:26:41;18.40;99.50
72865;DHT22;61000;48.120;11.548;2022-08-19T05:29:08;18.40;99.50
72865;DHT22;61000;48.120;11.548;2022-08-19T05:31:36;18.40;99.30
72865;DHT22;61000;48.120;11.548;2022-08-19T05:34:05;18.40;99.30
72865;DHT22;61000;48.120;11.548;2022-08-19T05:36:36;18.40;99.40
72865;DHT22;61000;48.120;11.548;2022-08-19T05:39:05;18.40;99.30
72865;DHT22;61000;48.120;11.548;2022-08-19T05:41:32;18.40;99.30
72865;DHT22;61000;48.120;11.548;2022-08-19T05:44:02;18.40;99.40
72865;DHT22;61000;48.120;11.548;2022-08-19T05:46:31;18.40;99.40
72865;DHT22;61000;48.120;11.548;2022-08-19T05:48:58;18.40;99.30
72865;DHT22;61000;48.120;11.548;2022-08-19T05:51:26;18.40;99.30
72865;DHT22;61000;48.120;11.548;2022-08-19T05:53:53;18.50;99.20
72865;DHT22;61000;48.120;11.548;2022-08-19T05:56:20;18.50;99.10
72865;DHT22;61000;48.120;11.548;2022-08-19T05:58:47;18.50;99.20
72865;DHT22;61000;48.120;11.548;2022-08-19T06:01:17;18.50;99.10
72865;DHT22;61000;48.120;11.548;2022-08-19T06:03:45;18.50;99.00
72865;DHT22;61000;48.120;11.548;2022-08-19T06:06:14;18.50;99.00
72865;DHT22;61000;48.120;11.548;2022-08-19T06:08:43;18.50;98.90
72865;DHT22;61000;48.120;11.548;2022-08-19T06:11:19;18.50;99.00
72865;DHT22;61000;48.120;11.548;2022-08-19T06:13:47;18.50;98.90
72865;DHT22;61000;48.120;11.548;2022-08-19T06:16:17;18.40;98.90
72865;DHT22;61000;48.120;11.548;2022-08-19T06:18:49;18.40;98.90
72865;DHT22;61000;48.120;11.548;2022-08-19T06:21:18;18.50;99.00
72865;DHT22;61000;48.120;11.548;2022-08-19T06:23:47;18.50;99.10
72865;DHT22;61000;48.120;11.548;2022-08-19T06:26:16;18.50;99.10
72865;DHT22;61000;48.120;11.548;2022-08-19T06:28:43;18.50;99.20
72865;DHT22;61000;48.120;11.548;2022-08-19T06:31:13;18.50;99.20
72865;DHT22;61000;48.120;11.548;2022-08-19T06:33:44;18.40;99.30
72865;DHT22;61000;48.120;11.548;2022-08-19T06:36:18;18.40;99.40
72865;DHT22;61000;48.120;11.548;2022-08-19T06:38:47;18.50;99.60
72865;DHT22;61000;48.120;11.548;2022-08-19T06:41:14;18.50;99.60
72865;DHT22;61000;48.120;11.548;2022-08-19T06:43:41;18.50;99.80
72865;DHT22;61000;48.120;11.548;2022-08-19T06:46:12;18.50;99.80
72865;DHT22;61000;48.120;11.548;2022-08-19T06:48:40;18.60;99.90
72865;DHT22;61000;48.120;11.548;2022-08-19T06:51:07;18.60;99.90
72865;DHT22;61000;48.120;11.548;2022-08-19T06:53:34;18.50;99.90
72865;DHT22;61000;48.120;11.548;2022-08-19T06:56:03;18.60;99.90
72865;DHT22;61000;48.120;11.548;2022-08-19T06:58:30;18.60;99.90
72865;DHT22;61000;48.120;11.548;2022-08-19T07:00:59;18.60;99.90
72865;DHT22;61000;48.120;11.548;2022-08-19T07:03:30;18.60;99.90
72865;DHT22;61000;48.120;11.548;2022-08-19T07:05:58;18.60;99.90
72865;DHT22;61000;48.120;11.548;2022-08-19T07:08:28;18.60;99.90
72865;DHT22;61000;48.120;11.548;2022-08-19T07:10:55;18.70;99.90
72865;DHT22;61000;48.120;11.548;2022-08-19T07:13:24;18.60;99.90
72865;DHT22;61000;48.120;11.548;2022-08-19T07:15:51;18.50;99.90
72865;DHT22;61000;48.120;11.548;2022-08-19T07:18:18;18.60;99.90
72865;DHT22;61000;48.120;11.548;2022-08-19T07:20:45;18.60;99.90
72865;DHT22;61000;48.120;11.548;2022-08-19T07:23:13;18.70;99.90
72865;DHT22;61000;48.120;11.548;2022-08-19T07:25:40;18.70;99.90
72865;DHT22;61000;48.120;11.548;2022-08-19T07:28:07;18.80;99.90
72865;DHT22;61000;48.120;11.548;2022-08-19T07:30:37;18.80;99.90
72865;DHT22;61000;48.120;11.548;2022-08-19T07:33:06;18.90;99.90
72865;DHT22;61000;48.120;11.548;2022-08-19T07:35:33;19.00;99.90
72865;DHT22;61000;48.120;11.548;2022-08-19T07:38:00;19.00;99.90
72865;DHT22;61000;48.120;11.548;2022-08-19T07:40:29;19.10;99.80
72865;DHT22;61000;48.120;11.548;2022-08-19T07:42:56;19.20;99.50
72865;DHT22;61000;48.120;11.548;2022-08-19T07:45:23;19.20;99.40
72865;DHT22;61000;48.120;11.548;2022-08-19T07:47:52;19.20;99.20
72865;DHT22;61000;48.120;11.548;2022-08-19T07:50:20;19.20;99.30
72865;DHT22;61000;48.120;11.548;2022-08-19T07:52:47;19.20;99.20
72865;DHT22;61000;48.120;11.548;2022-08-19T07:55:17;19.20;99.20
72865;DHT22;61000;48.120;11.548;2022-08-19T07:57:44;19.10;99.40
72865;DHT22;61000;48.120;11.548;2022-08-19T08:00:11;19.10;99.30
72865;DHT22;61000;48.120;11.548;2022-08-19T08:02:38;19.10;99.30
72865;DHT22;61000;48.120;11.548;2022-08-19T08:05:10;19.10;99.20
72865;DHT22;61000;48.120;11.548;2022-08-19T08:07:54;19.20;99.00
72865;DHT22;61000;48.120;11.548;2022-08-19T08:10:39;19.20;99.10
72865;DHT22;61000;48.120;11.548;2022-08-19T08:13:06;19.20;99.20
72865;DHT22;61000;48.120;11.548;2022-08-19T08:15:33;19.10;98.90
72865;DHT22;61000;48.120;11.548;2022-08-19T08:18:00;19.10;99.20
72865;DHT22;61000;48.120;11.548;2022-08-19T08:20:29;19.10;99.10
72865;DHT22;61000;48.120;11.548;2022-08-19T08:22:56;19.10;99.20
72865;DHT22;61000;48.120;11.548;2022-08-19T08:25:40;19.10;99.30
72865;DHT22;61000;48.120;11.548;2022-08-19T08:28:07;19.10;99.10
72865;DHT22;61000;48.120;11.548;2022-08-19T08:30:34;19.10;99.20
72865;DHT22;61000;48.120;11.548;2022-08-19T08:33:03;19.10;99.10
72865;DHT22;61000;48.120;11.548;2022-08-19T08:35:32;19.10;98.80
72865;DHT22;61000;48.120;11.548;2022-08-19T08:38:00;19.10;99.10
72865;DHT22;61000;48.120;11.548;2022-08-19T08:40:31;19.10;99.00
72865;DHT22;61000;48.120;11.548;2022-08-19T08:43:06;19.10;98.90
72865;DHT22;61000;48.120;11.548;2022-08-19T08:45:35;19.10;99.10
72865;DHT22;61000;48.120;11.548;2022-08-19T08:48:20;19.00;98.90
72865;DHT22;61000;48.120;11.548;2022-08-19T08:50:51;19.10;99.20
72865;DHT22;61000;48.120;11.548;2022-08-19T08:53:21;19.00;99.10
72865;DHT22;61000;48.120;11.548;2022-08-19T08:55:48;19.00;99.30
72865;DHT22;61000;48.120;11.548;2022-08-19T08:58:19;19.00;99.60
72865;DHT22;61000;48.120;11.548;2022-08-19T09:00:48;19.10;99.40
72865;DHT22;61000;48.120;11.548;2022-08-19T09:03:19;19.00;99.30
72865;DHT22;61000;48.120;11.548;2022-08-19T09:05:55;19.10;99.60
72865;DHT22;61000;48.120;11.548;2022-08-19T09:08:33;19.00;99.70
72865;DHT22;61000;48.120;11.548;2022-08-19T09:11:06;19.00;99.60
72865;DHT22;61000;48.120;11.548;2022-08-19T09:13:41;19.00;99.70
72865;DHT22;61000;48.120;11.548;2022-08-19T09:16:13;19.00;99.90
72865;DHT22;61000;48.120;11.548;2022-08-19T09:18:42;19.00;99.90
72865;DHT22;61000;48.120;11.548;2022-08-19T09:21:12;19.00;99.90
72865;DHT22;61000;48.120;11.548;2022-08-19T09:23:39;19.00;99.90
72865;DHT22;61000;48.120;11.548;2022-08-19T09:26:10;19.10;99.90
72865;DHT22;61000;48.120;11.548;2022-08-19T09:28:39;19.10;99.90
72865;DHT22;61000;48.120;11.548;2022-08-19T09:31:07;19.10;99.90
72865;DHT22;61000;48.120;11.548;2022-08-19T09:33:34;19.20;99.90
72865;DHT22;61000;48.120;11.548;2022-08-19T09:36:03;19.10;99.90
72865;DHT22;61000;48.120;11.548;2022-08-19T09:38:32;19.20;99.90
72865;DHT22;61000;48.120;11.548;2022-08-19T09:41:03;19.20;99.90
72865;DHT22;61000;48.120;11.548;2022-08-19T09:43:31;19.20;99.90
72865;DHT22;61000;48.120;11.548;2022-08-19T09:45:59;19.20;99.90
72865;DHT22;61000;48.120;11.548;2022-08-19T09:48:26;19.20;99.90
72865;DHT22;61000;48.120;11.548;2022-08-19T09:50:53;19.20;99.90
72865;DHT22;61000;48.120;11.548;2022-08-19T09:53:20;19.20;99.90
72865;DHT22;61000;48.120;11.548;2022-08-19T09:55:49;19.30;99.90
72865;DHT22;61000;48.120;11.548;2022-08-19T09:58:16;19.30;99.90
72865;DHT22;61000;48.120;11.548;2022-08-19T10:00:43;19.30;99.90
72865;DHT22;61000;48.120;11.548;2022-08-19T10:03:11;19.40;99.90
72865;DHT22;61000;48.120;11.548;2022-08-19T10:05:38;19.40;99.90
72865;DHT22;61000;48.120;11.548;2022-08-19T10:08:19;19.40;99.90
72865;DHT22;61000;48.120;11.548;2022-08-19T10:10:47;19.40;99.90
72865;DHT22;61000;48.120;11.548;2022-08-19T10:13:18;19.40;99.90
72865;DHT22;61000;48.120;11.548;2022-08-19T10:15:47;19.50;99.90
72865;DHT22;61000;48.120;11.548;2022-08-19T10:18:16;19.60;99.90
72865;DHT22;61000;48.120;11.548;2022-08-19T10:20:43;19.80;99.90
72865;DHT22;61000;48.120;11.548;2022-08-19T10:23:11;19.90;99.90
72865;DHT22;61000;48.120;11.548;2022-08-19T10:25:38;20.00;98.80
72865;DHT22;61000;48.120;11.548;2022-08-19T10:28:05;20.20;99.10
72865;DHT22;61000;48.120;11.548;2022-08-19T10:30:35;20.40;99.00
72865;DHT22;61000;48.120;11.548;2022-08-19T10:33:02;20.70;98.50
72865;DHT22;61000;48.120;11.548;2022-08-19T10:35:30;20.90;97.80
72865;DHT22;61000;48.120;11.548;2022-08-19T10:37:57;21.10;97.20
72865;DHT22;61000;48.120;11.548;2022-08-19T10:40:27;21.20;96.40
72865;DHT22;61000;48.120;11.548;2022-08-19T10:42:54;21.10;96.10
72865;DHT22;61000;48.120;11.548;2022-08-19T10:45:22;21.20;96.60
72865;DHT22;61000;48.120;11.548;2022-08-19T10:47:53;21.30;96.90
72865;DHT22;61000;48.120;11.548;2022-08-19T10:50:20;21.30;95.70
72865;DHT22;61000;48.120;11.548;2022-08-19T10:53:06;21.50;96.30
72865;DHT22;61000;48.120;11.548;2022-08-19T10:55:34;21.50;95.40
72865;DHT22;61000;48.120;11.548;2022-08-19T10:58:21;21.50;95.00
72865;DHT22;61000;48.120;11.548;2022-08-19T11:00:52;21.60;95.10
72865;DHT22;61000;48.120;11.548;2022-08-19T11:03:22;21.80;94.70
72865;DHT22;61000;48.120;11.548;2022-08-19T11:05:58;21.80;94.40
72865;DHT22;61000;48.120;11.548;2022-08-19T11:08:28;21.80;94.00
72865;DHT22;61000;48.120;11.548;2022-08-19T11:11:00;21.70;94.50
72865;DHT22;61000;48.120;11.548;2022-08-19T11:13:28;21.60;94.50
72865;DHT22;61000;48.120;11.548;2022-08-19T11:16:00;21.40;95.00
72865;DHT22;61000;48.120;11.548;2022-08-19T11:18:29;21.20;95.00
72865;DHT22;61000;48.120;11.548;2022-08-19T11:21:05;21.20;95.80
72865;DHT22;61000;48.120;11.548;2022-08-19T11:23:32;21.30;95.50
72865;DHT22;61000;48.120;11.548;2022-08-19T11:25:59;21.20;95.00
72865;DHT22;61000;48.120;11.548;2022-08-19T11:28:29;21.20;95.60
72865;DHT22;61000;48.120;11.548;2022-08-19T11:30:55;21.20;95.00
72865;DHT22;61000;48.120;11.548;2022-08-19T11:33:22;21.20;94.90
72865;DHT22;61000;48.120;11.548;2022-08-19T11:35:53;21.00;95.10
72865;DHT22;61000;48.120;11.548;2022-08-19T11:38:20;21.00;95.40
72865;DHT22;61000;48.120;11.548;2022-08-19T11:40:56;20.90;95.20
72865;DHT22;61000;48.120;11.548;2022-08-19T11:43:26;20.90;95.30
72865;DHT22;61000;48.120;11.548;2022-08-19T11:45:53;20.80;95.00
72865;DHT22;61000;48.120;11.548;2022-08-19T11:48:20;20.90;94.80
72865;DHT22;61000;48.120;11.548;2022-08-19T11:50:48;20.90;94.90
72865;DHT22;61000;48.120;11.548;2022-08-19T11:53:18;20.90;95.00
72865;DHT22;61000;48.120;11.548;2022-08-19T11:55:46;21.00;95.40
72865;DHT22;61000;48.120;11.548;2022-08-19T11:58:15;21.00;94.70
72865;DHT22;61000;48.120;11.548;2022-08-19T12:00:42;21.10;94.90
72865;DHT22;61000;48.120;11.548;2022-08-19T12:03:14;21.10;94.30
72865;DHT22;61000;48.120;11.548;2022-08-19T12:05:41;21.10;94.10
72865;DHT22;61000;48.120;11.548;2022-08-19T12:08:08;20.90;94.10
72865;DHT22;61000;48.120;11.548;2022-08-19T12:10:38;20.80;94.70
72865;DHT22;61000;48.120;11.548;2022-08-19T12:13:06;20.70;95.00
72865;DHT22;61000;48.120;11.548;2022-08-19T12:15:36;20.70;94.80
72865;DHT22;61000;48.120;11.548;2022-08-19T12:18:04;20.80;94.90
72865;DHT22;61000;48.120;11.548;2022-08-19T12:20:34;20.70;94.80
72865;DHT22;61000;48.120;11.548;2022-08-19T12:23:01;20.70;94.80
72865;DHT22;61000;48.120;11.548;2022-08-19T12:25:28;20.70;95.00
72865;DHT22;61000;48.120;11.548;2022-08-19T12:27:57;20.80;95.10
72865;DHT22;61000;48.120;11.548;2022-08-19T12:30:24;20.90;95.00
72865;DHT22;61000;48.120;11.548;2022-08-19T12:32:51;20.90;94.60
72865;DHT22;61000;48.120;11.548;2022-08-19T12:35:19;20.70;94.30
72865;DHT22;61000;48.120;11.548;2022-08-19T12:37:47;20.60;94.80
72865;DHT22;61000;48.120;11.548;2022-08-19T12:40:15;20.70;95.00
72865;DHT22;61000;48.120;11.548;2022-08-19T12:42:43;20.80;95.10
72865;DHT22;61000;48.120;11.548;2022-08-19T12:45:12;21.00;94.30
72865;DHT22;61000;48.120;11.548;2022-08-19T12:47:39;21.10;93.90
72865;DHT22;61000;48.120;11.548;2022-08-19T12:50:07;21.10;93.70
72865;DHT22;61000;48.120;11.548;2022-08-19T12:52:35;21.30;93.30
72865;DHT22;61000;48.120;11.548;2022-08-19T12:55:05;21.50;93.30
72865;DHT22;61000;48.120;11.548;2022-08-19T12:57:32;21.70;92.90
72865;DHT22;61000;48.120;11.548;2022-08-19T13:00:07;21.80;92.40
72865;DHT22;61000;48.120;11.548;2022-08-19T13:02:38;21.80;92.20
72865;DHT22;61000;48.120;11.548;2022-08-19T13:05:08;21.90;91.60
72865;DHT22;61000;48.120;11.548;2022-08-19T13:07:36;22.00;91.40
72865;DHT22;61000;48.120;11.548;2022-08-19T13:10:08;22.10;91.00
72865;DHT22;61000;48.120;11.548;2022-08-19T13:12:37;22.20;90.90
72865;DHT22;61000;48.120;11.548;2022-08-19T13:15:09;22.30;90.80
72865;DHT22;61000;48.120;11.548;2022-08-19T13:17:39;22.30;90.20
72865;DHT22;61000;48.120;11.548;2022-08-19T13:20:07;22.30;89.30
72865;DHT22;61000;48.120;11.548;2022-08-19T13:22:35;22.50;89.50
72865;DHT22;61000;48.120;11.548;2022-08-19T13:25:02;22.50;89.00
72865;DHT22;61000;48.120;11.548;2022-08-19T13:27:29;22.60;88.70
72865;DHT22;61000;48.120;11.548;2022-08-19T13:29:56;22.50;89.00
72865;DHT22;61000;48.120;11.548;2022-08-19T13:32:42;22.50;89.00
72865;DHT22;61000;48.120;11.548;2022-08-19T13:35:23;22.40;90.00
72865;DHT22;61000;48.120;11.548;2022-08-19T13:37:52;22.30;90.40
72865;DHT22;61000;48.120;11.548;2022-08-19T13:40:23;22.40;90.20
72865;DHT22;61000;48.120;11.548;2022-08-19T13:42:53;22.40;90.30
72865;DHT22;61000;48.120;11.548;2022-08-19T13:45:22;22.20;90.70
72865;DHT22;61000;48.120;11.548;2022-08-19T13:47:55;21.90;91.20
72865;DHT22;61000;48.120;11.548;2022-08-19T13:50:25;21.70;91.70
72865;DHT22;61000;48.120;11.548;2022-08-19T13:52:53;21.60;92.00
72865;DHT22;61000;48.120;11.548;2022-08-19T13:55:21;21.70;92.40
72865;DHT22;61000;48.120;11.548;2022-08-19T13:57:50;21.60;92.10
72865;DHT22;61000;48.120;11.548;2022-08-19T14:00:21;21.30;92.60
72865;DHT22;61000;48.120;11.548;2022-08-19T14:02:54;21.10;93.10
72865;DHT22;61000;48.120;11.548;2022-08-19T14:05:24;21.10;93.20
72865;DHT22;61000;48.120;11.548;2022-08-19T14:07:51;21.10;93.40
72865;DHT22;61000;48.120;11.548;2022-08-19T14:10:18;21.00;93.60
72865;DHT22;61000;48.120;11.548;2022-08-19T14:12:45;21.10;93.50
72865;DHT22;61000;48.120;11.548;2022-08-19T14:15:14;21.20;93.20
72865;DHT22;61000;48.120;11.548;2022-08-19T14:17:44;21.30;92.90
72865;DHT22;61000;48.120;11.548;2022-08-19T14:20:14;21.40;92.70
72865;DHT22;61000;48.120;11.548;2022-08-19T14:22:42;21.70;92.10
72865;DHT22;61000;48.120;11.548;2022-08-19T14:25:12;22.00;91.60
72865;DHT22;61000;48.120;11.548;2022-08-19T14:27:44;22.20;90.90
72865;DHT22;61000;48.120;11.548;2022-08-19T14:30:13;22.10;91.00
72865;DHT22;61000;48.120;11.548;2022-08-19T14:32:40;22.00;91.00
72865;DHT22;61000;48.120;11.548;2022-08-19T14:35:09;21.90;91.10
72865;DHT22;61000;48.120;11.548;2022-08-19T14:37:40;21.90;91.40
72865;DHT22;61000;48.120;11.548;2022-08-19T14:40:08;21.70;91.70
72865;DHT22;61000;48.120;11.548;2022-08-19T14:42:35;21.70;92.00
72865;DHT22;61000;48.120;11.548;2022-08-19T14:45:03;21.60;92.30
72865;DHT22;61000;48.120;11.548;2022-08-19T14:47:31;21.40;92.60
72865;DHT22;61000;48.120;11.548;2022-08-19T14:49:58;21.40;92.80
72865;DHT22;61000;48.120;11.548;2022-08-19T14:52:25;21.40;92.70
72865;DHT22;61000;48.120;11.548;2022-08-19T14:54:56;21.40;92.50
72865;DHT22;61000;48.120;11.548;2022-08-19T14:57:23;21.30;92.90
72865;DHT22;61000;48.120;11.548;2022-08-19T14:59:53;21.20;92.70
72865;DHT22;61000;48.120;11.548;2022-08-19T15:02:22;21.20;92.70
72865;DHT22;61000;48.120;11.548;2022-08-19T15:04:49;21.10;92.80
72865;DHT22;61000;48.120;11.548;2022-08-19T15:07:17;21.10;92.70
72865;DHT22;61000;48.120;11.548;2022-08-19T15:09:44;21.00;92.70
72865;DHT22;61000;48.120;11.548;2022-08-19T15:12:12;20.90;92.60
72865;DHT22;61000;48.120;11.548;2022-08-19T15:14:39;20.90;92.80
72865;DHT22;61000;48.120;11.548;2022-08-19T15:17:07;21.00;92.70
72865;DHT22;61000;48.120;11.548;2022-08-19T15:19:34;21.00;92.70
72865;DHT22;61000;48.120;11.548;2022-08-19T15:22:01;21.00;92.60
72865;DHT22;61000;48.120;11.548;2022-08-19T15:24:32;20.90;92.80
72865;DHT22;61000;48.120;11.548;2022-08-19T15:27:00;20.90;92.90